Terminal Aerodrome Forecast
Issued by NWS Duluth, MN

Home | Current Version | Previous Version | Text Only | Print | Product List | Glossary On
Versions: 1 2 3 4 5 6 7 8 9 10 11 12 13 14 15 16 17 18 19
190
FTUS43 KDLH 221139
TAFINL
TAF
KINL 221139Z 2212/2312 02004KT P6SM VCSH FEW060 OVC080
     FM221300 03005KT P6SM VCSH OVC025
     FM221400 03005KT P6SM VCSH OVC008
     FM222100 01008KT P6SM VCSH OVC015
     FM230000 36007KT P6SM OVC030=

USA.gov is the U.S. government's official web portal to all federal, state and local government web resources and services.